createdAt,value
2023-04-07T00:01:25.708Z,6.35
2023-04-07T00:03:52.594Z,6.03
2023-04-07T00:06:19.556Z,5.63
2023-04-07T00:08:46.216Z,5.00
2023-04-07T00:11:13.019Z,5.10
2023-04-07T00:13:39.740Z,4.60
2023-04-07T00:16:06.623Z,4.57
2023-04-07T00:18:33.467Z,4.00
2023-04-07T00:21:00.335Z,3.85
2023-04-07T00:23:27.149Z,4.50
2023-04-07T00:25:53.982Z,4.15
2023-04-07T00:28:20.759Z,4.15
2023-04-07T00:30:47.484Z,4.53
2023-04-07T00:33:14.232Z,4.30
2023-04-07T00:35:41.063Z,4.55
2023-04-07T00:38:07.857Z,3.95
2023-04-07T00:40:34.714Z,4.43
2023-04-07T00:43:01.526Z,4.53
2023-04-07T00:45:28.340Z,4.28
2023-04-07T00:47:59.855Z,4.55
2023-04-07T00:50:26.695Z,4.20
2023-04-07T00:52:54.930Z,4.65
2023-04-07T00:55:21.672Z,5.45
2023-04-07T00:57:48.469Z,5.40
2023-04-07T01:00:15.802Z,4.28
2023-04-07T01:02:50.249Z,4.78
2023-04-07T01:05:23.464Z,4.55
2023-04-07T01:08:03.590Z,4.72
2023-04-07T01:10:52.854Z,4.68
2023-04-07T01:13:41.542Z,4.97
2023-04-07T01:16:13.403Z,5.03
2023-04-07T01:18:41.082Z,4.43
2023-04-07T01:21:13.922Z,4.90
2023-04-07T01:24:11.415Z,4.85
2023-04-07T01:26:39.313Z,5.07
2023-04-07T01:29:31.394Z,5.05
2023-04-07T01:32:00.835Z,4.57
2023-04-07T01:34:31.387Z,3.90
2023-04-07T01:37:01.489Z,4.75
2023-04-07T01:39:29.205Z,5.32
2023-04-07T01:41:57.605Z,5.90
2023-04-07T01:44:26.071Z,4.82
2023-04-07T01:46:54.136Z,5.82
2023-04-07T01:49:21.171Z,4.55
2023-04-07T01:51:51.938Z,5.45
2023-04-07T01:54:18.820Z,4.72
2023-04-07T01:56:46.017Z,5.10
2023-04-07T01:59:13.190Z,5.35
2023-04-07T02:01:40.550Z,5.60
2023-04-07T02:04:22.896Z,5.10
2023-04-07T02:06:57.530Z,5.63
2023-04-07T02:09:26.014Z,5.38
2023-04-07T02:11:55.640Z,5.57
2023-04-07T02:14:24.467Z,5.50
2023-04-07T02:16:52.755Z,4.88
2023-04-07T02:19:19.799Z,5.88
2023-04-07T02:21:48.661Z,5.93
2023-04-07T02:24:19.240Z,4.88
2023-04-07T02:26:46.086Z,5.35
2023-04-07T02:29:12.818Z,5.57
2023-04-07T02:31:39.771Z,4.88
2023-04-07T02:34:06.615Z,5.88
2023-04-07T02:36:33.409Z,5.90
2023-04-07T02:39:00.340Z,7.20
2023-04-07T02:41:27.475Z,6.97
2023-04-07T02:43:54.477Z,6.88
2023-04-07T02:46:21.582Z,6.90
2023-04-07T02:48:48.447Z,6.13
2023-04-07T02:51:15.292Z,6.53
2023-04-07T02:53:41.964Z,7.20
2023-04-07T02:56:08.810Z,6.95
2023-04-07T02:58:35.514Z,6.60
2023-04-07T03:01:02.553Z,6.75
2023-04-07T03:03:29.541Z,6.72
2023-04-07T03:05:56.519Z,7.15
2023-04-07T03:08:23.292Z,6.45
2023-04-07T03:10:50.006Z,7.38
2023-04-07T03:13:19.160Z,6.95
2023-04-07T03:15:46.121Z,7.60
2023-04-07T03:18:13.047Z,6.68
2023-04-07T03:20:41.906Z,6.50
2023-04-07T03:23:08.928Z,7.30
2023-04-07T03:25:35.817Z,7.63
2023-04-07T03:28:02.665Z,7.78
2023-04-07T03:30:29.396Z,6.90
2023-04-07T03:32:56.141Z,6.75
2023-04-07T03:35:22.898Z,7.38
2023-04-07T03:37:49.698Z,7.05
2023-04-07T03:40:16.603Z,7.78
2023-04-07T03:42:43.620Z,7.03
2023-04-07T03:45:10.451Z,8.10
2023-04-07T03:47:37.290Z,8.68
2023-04-07T03:50:04.443Z,9.30
2023-04-07T03:52:31.556Z,7.95
2023-04-07T03:54:58.321Z,8.05
2023-04-07T03:57:25.117Z,8.20
2023-04-07T03:59:51.853Z,9.60
2023-04-07T04:02:19.228Z,9.32
2023-04-07T04:04:46.112Z,8.40
2023-04-07T04:07:12.926Z,8.00
2023-04-07T04:09:40.023Z,8.90
2023-04-07T04:12:06.884Z,7.90
2023-04-07T04:14:33.624Z,9.75
2023-04-07T04:17:00.582Z,8.70
2023-04-07T04:19:27.376Z,8.82
2023-04-07T04:21:54.196Z,8.70
2023-04-07T04:24:20.962Z,9.57
2023-04-07T04:26:47.640Z,8.00
2023-04-07T04:29:14.302Z,9.45
2023-04-07T04:31:41.116Z,8.40
2023-04-07T04:34:07.890Z,9.95
2023-04-07T04:36:35.654Z,9.77
2023-04-07T04:39:03.350Z,9.70
2023-04-07T04:41:29.999Z,10.65
2023-04-07T04:43:56.737Z,10.32
2023-04-07T04:46:25.030Z,11.25
2023-04-07T04:48:52.764Z,11.80
2023-04-07T04:51:19.668Z,10.30
2023-04-07T04:53:46.382Z,9.80
2023-04-07T04:56:13.111Z,10.43
2023-04-07T04:58:46.367Z,10.30
2023-04-07T05:01:13.985Z,10.57
2023-04-07T05:03:40.973Z,11.75
2023-04-07T05:06:08.058Z,11.70
2023-04-07T05:08:34.794Z,10.32
2023-04-07T05:11:01.581Z,11.25
2023-04-07T05:13:30.687Z,12.27
2023-04-07T05:15:57.630Z,12.10
2023-04-07T05:18:24.606Z,12.88
2023-04-07T05:20:51.474Z,12.63
2023-04-07T05:23:18.310Z,11.43
2023-04-07T05:25:45.094Z,12.93
2023-04-07T05:28:11.819Z,12.63
2023-04-07T05:30:38.621Z,12.65
2023-04-07T05:33:05.529Z,13.32
2023-04-07T05:35:32.408Z,12.70
2023-04-07T05:37:59.128Z,13.98
2023-04-07T05:40:25.923Z,13.15
2023-04-07T05:42:52.640Z,14.07
2023-04-07T05:45:19.442Z,13.80
2023-04-07T05:47:49.977Z,12.93
2023-04-07T05:50:17.875Z,12.90
2023-04-07T05:52:44.711Z,13.85
2023-04-07T05:55:11.625Z,12.88
2023-04-07T05:57:38.638Z,12.00
2023-04-07T06:00:06.065Z,13.18
2023-04-07T06:02:32.973Z,14.50
2023-04-07T06:04:59.896Z,12.88
2023-04-07T06:07:26.677Z,13.77
2023-04-07T06:09:53.387Z,14.90
2023-04-07T06:12:20.494Z,13.00
2023-04-07T06:14:52.920Z,13.20
2023-04-07T06:17:19.964Z,15.82
2023-04-07T06:19:46.831Z,15.25
2023-04-07T06:22:13.703Z,14.35
2023-04-07T06:24:40.478Z,13.05
2023-04-07T06:27:07.571Z,14.43
2023-04-07T06:29:34.580Z,13.37
2023-04-07T06:32:02.410Z,13.18
2023-04-07T06:34:29.245Z,15.30
2023-04-07T06:36:58.083Z,13.97
2023-04-07T06:39:27.427Z,13.48
2023-04-07T06:41:54.192Z,12.20
2023-04-07T06:44:20.977Z,11.97
2023-04-07T06:46:50.386Z,13.10
2023-04-07T06:49:17.292Z,13.80
2023-04-07T06:51:44.015Z,12.80
2023-04-07T06:54:13.956Z,13.82
2023-04-07T06:56:44.048Z,14.85
2023-04-07T06:59:11.108Z,13.57
2023-04-07T07:01:38.203Z,12.53
2023-04-07T07:04:08.265Z,12.93
2023-04-07T07:06:35.340Z,12.80
2023-04-07T07:09:03.169Z,11.53
2023-04-07T07:11:29.968Z,12.03
2023-04-07T07:13:56.707Z,12.87
2023-04-07T07:16:26.528Z,12.97
2023-04-07T07:18:53.301Z,12.52
2023-04-07T07:21:20.354Z,12.60
2023-04-07T07:23:47.203Z,12.77
2023-04-07T07:26:14.058Z,12.67
2023-04-07T07:28:40.939Z,13.27
2023-04-07T07:31:13.268Z,12.20
2023-04-07T07:33:41.531Z,12.60
2023-04-07T07:36:08.802Z,12.27
2023-04-07T07:38:37.449Z,13.03
2023-04-07T07:41:04.580Z,13.77
2023-04-07T07:43:31.277Z,13.20
2023-04-07T07:45:58.169Z,13.20
2023-04-07T07:48:25.000Z,14.43
2023-04-07T07:50:52.541Z,15.20
2023-04-07T07:53:19.541Z,11.87
2023-04-07T07:55:47.142Z,11.57
2023-04-07T07:58:14.159Z,12.50
2023-04-07T08:00:41.320Z,12.80
2023-04-07T08:03:08.253Z,12.27
2023-04-07T08:05:35.370Z,11.90
2023-04-07T08:08:03.018Z,11.93
2023-04-07T08:10:29.862Z,11.23
2023-04-07T08:12:56.707Z,12.40
2023-04-07T08:15:23.455Z,11.63
2023-04-07T08:17:50.324Z,11.07
2023-04-07T08:20:17.454Z,11.93
2023-04-07T08:22:44.231Z,12.77
2023-04-07T08:25:11.083Z,11.03
2023-04-07T08:27:37.917Z,11.87
2023-04-07T08:30:09.149Z,11.33
2023-04-07T08:32:44.375Z,11.07
2023-04-07T08:35:12.072Z,11.70
2023-04-07T08:37:40.147Z,11.17
2023-04-07T08:40:07.620Z,10.83
2023-04-07T08:42:35.350Z,11.13
2023-04-07T08:45:06.868Z,8.77
2023-04-07T08:47:35.577Z,10.10
2023-04-07T08:50:05.497Z,9.47
2023-04-07T08:52:48.639Z,10.13
2023-04-07T08:55:15.528Z,9.33
2023-04-07T08:57:43.403Z,8.97
2023-04-07T09:00:13.131Z,9.53
2023-04-07T09:02:43.660Z,9.73
2023-04-07T09:05:11.561Z,9.73
2023-04-07T09:07:43.390Z,10.00
2023-04-07T09:10:10.749Z,10.33
2023-04-07T09:12:38.648Z,10.13
2023-04-07T09:15:08.926Z,10.47
2023-04-07T09:17:35.881Z,10.50
2023-04-07T09:20:02.965Z,9.67
2023-04-07T09:22:45.668Z,10.00
2023-04-07T09:25:27.497Z,13.43
2023-04-07T09:27:58.771Z,10.40
2023-04-07T09:30:26.445Z,8.63
2023-04-07T09:32:53.284Z,8.57
2023-04-07T09:35:23.021Z,7.63
2023-04-07T09:38:09.445Z,5.60
2023-04-07T09:40:40.007Z,6.10
2023-04-07T09:43:07.204Z,7.10
2023-04-07T09:45:36.846Z,7.17
2023-04-07T09:48:09.047Z,6.87
2023-04-07T09:50:39.806Z,8.10
2023-04-07T09:53:07.058Z,5.60
2023-04-07T09:55:35.303Z,6.60
2023-04-07T09:58:04.082Z,5.80
2023-04-07T10:00:30.888Z,6.00
2023-04-07T10:02:58.850Z,6.20
2023-04-07T10:05:25.903Z,5.20
2023-04-07T10:07:53.082Z,4.37
2023-04-07T10:10:20.109Z,4.00
2023-04-07T10:12:49.879Z,5.07
2023-04-07T10:15:17.118Z,4.40
2023-04-07T10:17:51.759Z,4.10
2023-04-07T10:20:21.002Z,3.27
2023-04-07T10:22:51.438Z,4.43
2023-04-07T10:25:21.217Z,4.00
2023-04-07T10:27:59.179Z,2.70
2023-04-07T10:30:29.000Z,3.27
2023-04-07T10:32:56.109Z,4.80
2023-04-07T10:35:24.202Z,7.37
2023-04-07T10:38:10.927Z,3.70
2023-04-07T10:40:38.266Z,4.00
2023-04-07T10:43:09.700Z,5.20
2023-04-07T10:45:48.636Z,3.83
2023-04-07T10:48:17.215Z,2.63
2023-04-07T10:50:45.647Z,2.90
2023-04-07T10:53:14.333Z,2.00
2023-04-07T10:55:45.517Z,2.40
2023-04-07T10:58:25.052Z,2.53
2023-04-07T11:01:04.829Z,2.30
2023-04-07T11:03:36.806Z,2.60
2023-04-07T11:06:11.039Z,2.80
2023-04-07T11:08:43.314Z,2.80
2023-04-07T11:11:12.051Z,3.10
2023-04-07T11:13:42.481Z,3.30
2023-04-07T11:16:10.185Z,3.10
2023-04-07T11:18:37.491Z,3.50
2023-04-07T11:21:08.078Z,3.20
2023-04-07T11:23:46.036Z,3.57
2023-04-07T11:26:14.966Z,5.03
2023-04-07T11:28:49.820Z,4.43
2023-04-07T11:31:26.740Z,5.97
2023-04-07T11:33:59.296Z,4.30
2023-04-07T11:36:33.228Z,3.93
2023-04-07T11:39:01.517Z,3.90
2023-04-07T11:41:30.688Z,4.07
2023-04-07T11:44:07.954Z,4.13
2023-04-07T11:46:35.449Z,3.57
2023-04-07T11:49:13.207Z,3.50
2023-04-07T11:51:41.288Z,4.00
2023-04-07T11:54:08.220Z,3.63
2023-04-07T11:56:46.116Z,4.00
2023-04-07T11:59:26.002Z,3.63
2023-04-07T12:01:56.168Z,3.13
2023-04-07T12:04:24.590Z,3.70
2023-04-07T12:06:51.715Z,4.00
2023-04-07T12:09:44.604Z,4.20
2023-04-07T12:12:11.466Z,4.20
2023-04-07T12:14:38.372Z,23.17
2023-04-07T12:17:05.305Z,4.33
2023-04-07T12:19:34.809Z,5.43
2023-04-07T12:22:01.699Z,5.10
2023-04-07T12:24:28.651Z,5.63
2023-04-07T12:26:56.168Z,4.40
2023-04-07T12:29:23.087Z,3.27
2023-04-07T12:31:51.218Z,10.47
2023-04-07T12:34:18.714Z,5.27
2023-04-07T12:36:45.682Z,3.70
2023-04-07T12:39:12.628Z,4.50
2023-04-07T12:41:39.827Z,3.10
2023-04-07T12:44:06.782Z,4.67
2023-04-07T12:46:33.646Z,2.80
2023-04-07T12:49:01.029Z,3.20
2023-04-07T12:51:28.461Z,3.43
2023-04-07T12:53:55.319Z,2.80
2023-04-07T12:56:22.455Z,2.90
2023-04-07T12:58:49.447Z,2.30
2023-04-07T13:01:16.835Z,2.93
2023-04-07T13:03:44.251Z,2.83
2023-04-07T13:06:11.605Z,2.90
2023-04-07T13:08:39.420Z,2.57
2023-04-07T13:11:06.515Z,3.20
2023-04-07T13:13:34.073Z,2.97
2023-04-07T13:16:01.237Z,3.13
2023-04-07T13:18:28.006Z,3.10
2023-04-07T13:21:26.471Z,2.90
2023-04-07T13:23:43.917Z,2.57
2023-04-07T13:26:11.385Z,3.20
2023-04-07T13:28:38.877Z,2.80
2023-04-07T13:31:05.811Z,3.17
2023-04-07T13:33:32.547Z,3.00
2023-04-07T13:35:59.274Z,3.60
2023-04-07T13:38:26.414Z,3.10
2023-04-07T13:40:53.114Z,2.50
2023-04-07T13:43:20.204Z,3.00
2023-04-07T13:45:47.160Z,2.50
2023-04-07T13:48:14.742Z,2.43
2023-04-07T13:50:41.620Z,2.50
2023-04-07T13:53:08.406Z,2.67
2023-04-07T13:55:35.236Z,3.07
2023-04-07T13:58:02.106Z,2.70
2023-04-07T14:00:28.843Z,2.70
2023-04-07T14:02:58.775Z,2.80
2023-04-07T14:05:25.641Z,3.70
2023-04-07T14:07:52.477Z,2.63
2023-04-07T14:10:19.410Z,2.70
2023-04-07T14:12:46.560Z,6.00
2023-04-07T14:15:13.346Z,4.80
2023-04-07T14:17:40.185Z,3.67
2023-04-07T14:20:07.687Z,2.87
2023-04-07T14:22:34.540Z,2.53
2023-04-07T14:25:01.560Z,3.57
2023-04-07T14:27:31.035Z,2.30
2023-04-07T14:29:59.582Z,2.10
2023-04-07T14:32:29.493Z,2.10
2023-04-07T14:34:56.659Z,2.07
2023-04-07T14:37:26.450Z,2.60
2023-04-07T14:40:02.564Z,6.80
2023-04-07T14:42:30.512Z,5.70
2023-04-07T14:44:59.975Z,42.93
2023-04-07T14:47:27.520Z,4.47
2023-04-07T14:49:54.634Z,2.77
2023-04-07T14:52:24.551Z,19.10
2023-04-07T14:54:51.367Z,3.53
2023-04-07T14:57:18.106Z,3.70
2023-04-07T14:59:44.840Z,8.27
2023-04-07T15:02:11.739Z,2.90
2023-04-07T15:04:38.795Z,2.80
2023-04-07T15:07:05.782Z,4.47
2023-04-07T15:09:32.564Z,2.90
2023-04-07T15:12:08.731Z,3.53
2023-04-07T15:14:35.573Z,2.50
2023-04-07T15:17:02.357Z,2.83
2023-04-07T15:19:29.750Z,2.80
2023-04-07T15:21:56.461Z,3.57
2023-04-07T15:24:23.152Z,4.87
2023-04-07T15:26:49.983Z,3.60
2023-04-07T15:29:16.744Z,3.67
2023-04-07T15:31:43.526Z,3.60
2023-04-07T15:34:10.234Z,27.30
2023-04-07T15:36:36.915Z,4.97
2023-04-07T15:39:04.875Z,3.83
2023-04-07T15:41:31.711Z,4.20
2023-04-07T15:44:00.627Z,4.00
2023-04-07T15:46:27.922Z,4.13
2023-04-07T15:48:54.997Z,19.27
2023-04-07T15:51:21.781Z,4.50
2023-04-07T15:53:48.867Z,15.33
2023-04-07T15:56:15.909Z,4.07
2023-04-07T15:58:42.772Z,3.07
2023-04-07T16:01:09.638Z,4.37
2023-04-07T16:03:36.608Z,3.10
2023-04-07T16:06:03.610Z,3.10
2023-04-07T16:08:30.490Z,8.70
2023-04-07T16:10:57.177Z,3.77
2023-04-07T16:13:23.981Z,3.70
2023-04-07T16:15:54.937Z,3.13
2023-04-07T16:18:21.762Z,2.80
2023-04-07T16:20:48.499Z,4.10
2023-04-07T16:23:15.309Z,2.73
2023-04-07T16:25:42.127Z,5.00
2023-04-07T16:28:08.871Z,4.70
2023-04-07T16:30:36.191Z,4.50
2023-04-07T16:33:03.390Z,6.07
2023-04-07T16:35:33.345Z,5.87
2023-04-07T16:38:04.293Z,5.40
2023-04-07T16:40:31.450Z,4.10
2023-04-07T16:42:58.217Z,8.47
2023-04-07T16:45:24.979Z,12.17
2023-04-07T16:47:51.728Z,12.03
2023-04-07T16:50:18.695Z,5.30
2023-04-07T16:52:46.895Z,4.67
2023-04-07T16:55:13.771Z,5.20
2023-04-07T16:57:40.574Z,5.17
2023-04-07T17:00:07.976Z,4.30
2023-04-07T17:02:35.200Z,3.60
2023-04-07T17:05:02.219Z,4.10
2023-04-07T17:07:29.022Z,5.33
2023-04-07T17:09:55.778Z,4.70
2023-04-07T17:12:22.744Z,4.70
2023-04-07T17:14:49.663Z,4.27
2023-04-07T17:17:16.684Z,3.50
2023-04-07T17:19:43.453Z,3.83
2023-04-07T17:22:10.471Z,4.40
2023-04-07T17:24:37.201Z,4.77
2023-04-07T17:27:03.903Z,4.40
2023-04-07T17:29:31.347Z,6.30
2023-04-07T17:31:58.197Z,4.10
2023-04-07T17:34:25.129Z,3.70
2023-04-07T17:36:51.930Z,3.80
2023-04-07T17:39:18.766Z,3.23
2023-04-07T17:41:46.828Z,3.47
2023-04-07T17:44:13.785Z,3.50
2023-04-07T17:46:40.632Z,3.10
2023-04-07T17:49:07.455Z,3.10
2023-04-07T17:51:34.260Z,3.67
2023-04-07T17:54:00.997Z,2.93
2023-04-07T17:56:27.831Z,2.90
2023-04-07T17:58:54.652Z,3.50
2023-04-07T18:01:21.560Z,3.97
2023-04-07T18:03:48.699Z,3.27
2023-04-07T18:06:19.207Z,4.13
2023-04-07T18:08:47.692Z,4.13
2023-04-07T18:11:15.001Z,4.00
2023-04-07T18:13:41.785Z,4.77
2023-04-07T18:16:11.492Z,3.47
2023-04-07T18:18:38.321Z,4.77
2023-04-07T18:21:06.702Z,6.80
2023-04-07T18:23:33.639Z,6.60
2023-04-07T18:26:06.631Z,6.30
2023-04-07T18:28:33.982Z,4.87
2023-04-07T18:31:09.890Z,5.30
2023-04-07T18:33:36.901Z,5.30
2023-04-07T18:36:07.018Z,5.20
2023-04-07T18:38:38.223Z,7.00
2023-04-07T18:41:07.256Z,5.67
2023-04-07T18:43:34.127Z,4.23
2023-04-07T18:46:00.973Z,3.93
2023-04-07T18:48:28.487Z,4.53
2023-04-07T18:50:56.562Z,5.53
2023-04-07T18:53:24.845Z,4.37
2023-04-07T18:55:51.919Z,4.40
2023-04-07T18:58:19.879Z,5.57
2023-04-07T19:00:49.467Z,4.60
2023-04-07T19:03:16.578Z,3.77
2023-04-07T19:05:47.244Z,3.40
2023-04-07T19:08:15.947Z,3.43
2023-04-07T19:10:42.900Z,4.20
2023-04-07T19:13:09.737Z,3.07
2023-04-07T19:15:38.445Z,3.10
2023-04-07T19:18:05.482Z,3.23
2023-04-07T19:20:33.748Z,3.70
2023-04-07T19:23:01.828Z,3.83
2023-04-07T19:25:28.955Z,4.17
2023-04-07T19:27:55.821Z,6.30
2023-04-07T19:30:22.657Z,5.60
2023-04-07T19:32:49.766Z,5.70
2023-04-07T19:35:16.933Z,4.53
2023-04-07T19:37:44.257Z,3.60
2023-04-07T19:40:12.036Z,4.83
2023-04-07T19:42:39.946Z,4.53
2023-04-07T19:45:08.240Z,4.03
2023-04-07T19:47:35.920Z,4.30
2023-04-07T19:50:03.842Z,4.10
2023-04-07T19:52:32.032Z,4.03
2023-04-07T19:54:59.694Z,5.13
2023-04-07T19:57:26.677Z,4.67
2023-04-07T19:59:53.387Z,3.53
2023-04-07T20:02:20.241Z,4.30
2023-04-07T20:04:47.238Z,3.67
2023-04-07T20:07:13.986Z,4.10
2023-04-07T20:09:40.708Z,3.67
2023-04-07T20:12:07.456Z,3.83
2023-04-07T20:14:34.191Z,3.80
2023-04-07T20:17:01.031Z,3.67
2023-04-07T20:19:27.800Z,4.37
2023-04-07T20:21:54.506Z,4.03
2023-04-07T20:24:21.295Z,3.90
2023-04-07T20:26:48.005Z,4.00
2023-04-07T20:29:14.757Z,3.87
2023-04-07T20:31:41.489Z,4.73
2023-04-07T20:34:08.245Z,4.63
2023-04-07T20:36:35.380Z,4.97
2023-04-07T20:39:02.603Z,4.07
2023-04-07T20:41:29.352Z,3.53
2023-04-07T20:43:56.174Z,4.83
2023-04-07T20:46:23.008Z,5.77
2023-04-07T20:48:50.115Z,4.87
2023-04-07T20:51:17.491Z,3.73
2023-04-07T20:53:44.207Z,3.83
2023-04-07T20:56:11.220Z,3.60
2023-04-07T20:58:38.181Z,3.80
2023-04-07T21:01:05.053Z,3.93
2023-04-07T21:03:32.177Z,3.90
2023-04-07T21:05:59.050Z,4.60
2023-04-07T21:08:25.958Z,4.70
2023-04-07T21:10:53.337Z,4.90
2023-04-07T21:13:22.346Z,4.63
2023-04-07T21:15:49.189Z,4.17
2023-04-07T21:18:16.011Z,3.97
2023-04-07T21:20:42.774Z,3.87
2023-04-07T21:23:09.481Z,3.63
2023-04-07T21:25:39.540Z,4.00
2023-04-07T21:28:06.510Z,4.20
2023-04-07T21:30:33.350Z,4.70
2023-04-07T21:33:00.341Z,4.30
2023-04-07T21:35:28.732Z,4.50
2023-04-07T21:37:56.444Z,3.90
2023-04-07T21:40:23.265Z,4.00
2023-04-07T21:42:52.013Z,4.07
2023-04-07T21:45:19.627Z,4.70
2023-04-07T21:47:46.945Z,4.80
2023-04-07T21:50:13.862Z,5.17
2023-04-07T21:52:42.456Z,4.90
2023-04-07T21:55:10.852Z,5.17
2023-04-07T21:57:37.813Z,5.57
2023-04-07T22:00:07.264Z,5.20
2023-04-07T22:02:34.274Z,5.00
2023-04-07T22:05:01.189Z,4.97
2023-04-07T22:07:27.936Z,4.80
2023-04-07T22:09:54.849Z,5.20
2023-04-07T22:12:21.525Z,5.50
2023-04-07T22:14:48.247Z,5.03
2023-04-07T22:17:15.608Z,5.67
2023-04-07T22:19:42.403Z,6.90
2023-04-07T22:22:09.176Z,6.47
2023-04-07T22:24:35.901Z,7.17
2023-04-07T22:27:03.352Z,5.70
2023-04-07T22:29:30.332Z,6.77
2023-04-07T22:31:57.086Z,7.60
2023-04-07T22:34:23.934Z,7.80
2023-04-07T22:36:50.823Z,7.63
2023-04-07T22:39:17.789Z,7.57
2023-04-07T22:41:44.494Z,6.80
2023-04-07T22:44:11.216Z,6.33
2023-04-07T22:46:37.990Z,6.50
2023-04-07T22:49:05.267Z,5.50
2023-04-07T22:51:32.225Z,6.77
2023-04-07T22:53:59.027Z,5.83
2023-04-07T22:56:27.245Z,6.30
2023-04-07T22:58:54.098Z,5.70
2023-04-07T23:01:21.065Z,5.47
2023-04-07T23:03:47.838Z,4.83
2023-04-07T23:06:14.573Z,4.73
2023-04-07T23:08:41.345Z,4.63
2023-04-07T23:11:11.138Z,4.40
2023-04-07T23:13:38.438Z,4.77
2023-04-07T23:16:06.369Z,5.20
2023-04-07T23:18:33.213Z,5.13
2023-04-07T23:21:00.009Z,5.30
2023-04-07T23:23:27.088Z,5.33
2023-04-07T23:25:53.872Z,6.20
2023-04-07T23:28:21.104Z,6.57
2023-04-07T23:30:47.899Z,6.97
2023-04-07T23:33:14.967Z,7.23
2023-04-07T23:35:41.789Z,8.07
2023-04-07T23:38:09.338Z,7.73
2023-04-07T23:40:36.483Z,7.23
2023-04-07T23:43:03.367Z,8.43
2023-04-07T23:45:30.351Z,8.73
2023-04-07T23:47:57.219Z,7.77
2023-04-07T23:50:27.301Z,8.00
2023-04-07T23:52:54.828Z,7.50
2023-04-07T23:55:21.636Z,7.80
2023-04-07T23:57:48.433Z,7.73
